Time;durP1;ratioP1;P1;durP2;ratioP2;P2;SDS_P1;SDS_P2;PMS_P1;PMS_P2;Temp;Humidity;BMP_temperature;BMP_pressure;BME280_temperature;BME280_humidity;BME280_pressure;Samples;Min_cycle;Max_cycle;Signal;HPM_P1;HPM_P2
2023/07/09 00:02:24;;;;;;;;;9.67;9.67;;;;;;;;5015972;28;45866;-78
2023/07/09 00:04:49;;;;;;;;;9.33;9.33;;;;;;;;5003640;28;45770;-78
2023/07/09 00:07:24;;;;;;;;;11.00;9.33;;;;;;;;5013557;28;45308;-77
2023/07/09 00:09:49;;;;;;;;;9.67;9.33;;;;;;;;5005635;28;45699;-79
2023/07/09 00:12:16;;;;;;;;;11.00;10.00;;;;;;;;5013362;28;45733;-76
2023/07/09 00:14:41;;;;;;;;;10.67;10.67;;;;;;;;5016115;28;45769;-77
2023/07/09 00:17:11;;;;;;;;;11.33;11.33;;;;;;;;5007105;28;48209;-78
2023/07/09 00:19:36;;;;;;;;;11.00;11.00;;;;;;;;4991564;28;45597;-79
2023/07/09 00:22:02;;;;;;;;;11.33;9.33;;;;;;;;4997372;28;45490;-79
2023/07/09 00:24:28;;;;;;;;;10.33;9.67;;;;;;;;5002052;28;45852;-77
2023/07/09 00:26:53;;;;;;;;;11.00;9.00;;;;;;;;5014948;28;45826;-78
2023/07/09 00:29:19;;;;;;;;;11.00;10.33;;;;;;;;5019340;28;45453;-78
2023/07/09 00:31:44;;;;;;;;;11.00;10.33;;;;;;;;5017358;28;45626;-77
2023/07/09 00:34:13;;;;;;;;;9.67;9.67;;;;;;;;5023013;28;45833;-79
2023/07/09 00:36:39;;;;;;;;;11.67;8.67;;;;;;;;5018030;28;45442;-77
2023/07/09 00:39:04;;;;;;;;;9.75;9.75;;;;;;;;4997576;28;45812;-77
2023/07/09 00:41:34;;;;;;;;;12.00;11.00;;;;;;;;5015337;28;45468;-77
2023/07/09 00:44:18;;;;;;;;;10.00;10.00;;;;;;;;5012164;28;45871;-78
2023/07/09 00:46:45;;;;;;;;;10.33;10.33;;;;;;;;5024770;28;45889;-83
2023/07/09 00:49:16;;;;;;;;;7.00;7.00;;;;;;;;5019697;28;45534;-83
2023/07/09 00:51:42;;;;;;;;;11.00;10.00;;;;;;;;5022011;28;45756;-82
2023/07/09 00:54:30;;;;;;;;;10.00;10.00;;;;;;;;5020195;28;45883;-82
2023/07/09 00:56:57;;;;;;;;;13.67;11.00;;;;;;;;5020930;28;45747;-84
2023/07/09 00:59:24;;;;;;;;;14.33;11.33;;;;;;;;5005745;28;45249;-83
2023/07/09 01:01:50;;;;;;;;;12.00;10.33;;;;;;;;5048723;28;45410;-83
2023/07/09 01:04:17;;;;;;;;;16.67;13.33;;;;;;;;5009133;28;46228;-82
2023/07/09 01:06:48;;;;;;;;;10.00;9.33;;;;;;;;5022395;28;45440;-83
2023/07/09 01:09:14;;;;;;;;;11.33;10.67;;;;;;;;4999993;28;45888;-83
2023/07/09 01:11:40;;;;;;;;;10.00;10.00;;;;;;;;5016751;28;45901;-82
2023/07/09 01:14:07;;;;;;;;;11.67;9.33;;;;;;;;5021504;28;45720;-83
2023/07/09 01:16:37;;;;;;;;;4.67;4.33;;;;;;;;5025318;28;46279;-83
2023/07/09 01:19:04;;;;;;;;;11.33;11.33;;;;;;;;5010434;28;45375;-78
2023/07/09 01:21:29;;;;;;;;;10.67;10.67;;;;;;;;5012858;28;45616;-77
2023/07/09 01:23:57;;;;;;;;;8.33;8.33;;;;;;;;5009418;28;46693;-83
2023/07/09 01:26:27;;;;;;;;;8.67;8.67;;;;;;;;5008204;28;47287;-84
2023/07/09 01:28:53;;;;;;;;;11.33;11.33;;;;;;;;5029897;28;45707;-84
2023/07/09 01:31:20;;;;;;;;;13.33;11.00;;;;;;;;5028208;28;45655;-83
2023/07/09 01:33:46;;;;;;;;;22.67;20.33;;;;;;;;5021686;28;45748;-84
2023/07/09 01:36:13;;;;;;;;;21.33;17.67;;;;;;;;5011121;28;47470;-82
2023/07/09 01:38:39;;;;;;;;;14.33;12.00;;;;;;;;5009233;28;46700;-82
2023/07/09 01:41:04;;;;;;;;;22.33;16.00;;;;;;;;5028727;28;45439;-83
2023/07/09 01:43:32;;;;;;;;;17.67;17.00;;;;;;;;5006946;28;46206;-83
2023/07/09 01:45:58;;;;;;;;;14.00;13.67;;;;;;;;4999483;28;47000;-77
2023/07/09 01:48:24;;;;;;;;;15.00;11.00;;;;;;;;5015198;28;45522;-77
2023/07/09 01:50:50;;;;;;;;;14.00;14.00;;;;;;;;5014889;28;45797;-77
2023/07/09 01:53:16;;;;;;;;;9.33;9.00;;;;;;;;5018168;28;45519;-77
2023/07/09 01:55:42;;;;;;;;;16.00;14.33;;;;;;;;5014074;28;46605;-84
2023/07/09 01:58:10;;;;;;;;;14.67;12.67;;;;;;;;5011059;28;45999;-77
2023/07/09 02:00:37;;;;;;;;;11.33;10.33;;;;;;;;5020462;28;45804;-77
2023/07/09 02:03:03;;;;;;;;;13.00;11.33;;;;;;;;5017304;28;45727;-77
2023/07/09 02:05:30;;;;;;;;;13.67;10.67;;;;;;;;5013568;28;45690;-84
2023/07/09 02:07:55;;;;;;;;;11.67;11.67;;;;;;;;5019709;28;45736;-76
2023/07/09 02:10:20;;;;;;;;;12.00;12.00;;;;;;;;5029576;28;45864;-77
2023/07/09 02:12:46;;;;;;;;;12.33;11.00;;;;;;;;5025450;28;45517;-78
2023/07/09 02:15:11;;;;;;;;;11.00;9.00;;;;;;;;5001227;28;47032;-78
2023/07/09 02:17:37;;;;;;;;;11.33;11.33;;;;;;;;5014638;28;45446;-77
2023/07/09 02:20:05;;;;;;;;;12.00;9.67;;;;;;;;5016092;28;45626;-75
2023/07/09 02:22:32;;;;;;;;;13.00;13.00;;;;;;;;5023642;28;45802;-76
2023/07/09 02:24:57;;;;;;;;;16.00;13.00;;;;;;;;5004401;28;47122;-77
2023/07/09 02:27:23;;;;;;;;;12.67;11.33;;;;;;;;5014988;28;45673;-81
2023/07/09 02:29:48;;;;;;;;;14.33;14.33;;;;;;;;5006484;28;45472;-82
2023/07/09 02:32:17;;;;;;;;;17.67;15.00;;;;;;;;5022181;28;45379;-78
2023/07/09 02:34:42;;;;;;;;;28.00;20.67;;;;;;;;5022665;28;46050;-76
2023/07/09 02:37:08;;;;;;;;;18.00;13.33;;;;;;;;5016307;28;46656;-75
2023/07/09 02:39:33;;;;;;;;;18.33;17.00;;;;;;;;5017853;28;45504;-76
2023/07/09 02:41:58;;;;;;;;;21.00;16.67;;;;;;;;5017655;28;45478;-77
2023/07/09 02:44:23;;;;;;;;;19.67;15.33;;;;;;;;5000957;28;46958;-83
2023/07/09 02:46:49;;;;;;;;;20.33;17.00;;;;;;;;5028293;28;45331;-83
2023/07/09 02:49:14;;;;;;;;;20.67;17.67;;;;;;;;5010504;28;46055;-83
2023/07/09 02:51:40;;;;;;;;;22.00;19.67;;;;;;;;5008753;28;45835;-74
2023/07/09 02:54:06;;;;;;;;;13.00;12.33;;;;;;;;4998444;28;48361;-82
2023/07/09 02:56:31;;;;;;;;;19.00;16.33;;;;;;;;5032798;28;45833;-76
2023/07/09 02:58:56;;;;;;;;;17.67;17.67;;;;;;;;5024023;28;45322;-82
2023/07/09 03:01:24;;;;;;;;;15.67;12.67;;;;;;;;5017454;28;46918;-84
2023/07/09 03:03:50;;;;;;;;;13.33;12.67;;;;;;;;5007850;28;47913;-81
2023/07/09 03:06:16;;;;;;;;;9.67;7.00;;;;;;;;5015107;28;45428;-82
2023/07/09 03:08:48;;;;;;;;;14.00;11.67;;;;;;;;5012064;28;45818;-83
2023/07/09 03:11:15;;;;;;;;;18.67;15.00;;;;;;;;5003945;28;45972;-83
2023/07/09 03:13:40;;;;;;;;;13.67;12.33;;;;;;;;4995843;28;46661;-76
2023/07/09 03:16:05;;;;;;;;;12.67;12.33;;;;;;;;4985395;28;46287;-81
2023/07/09 03:18:30;;;;;;;;;13.33;12.67;;;;;;;;5009272;28;45800;-81
2023/07/09 03:20:56;;;;;;;;;12.67;12.33;;;;;;;;5014258;28;45756;-82
2023/07/09 03:23:21;;;;;;;;;11.33;9.33;;;;;;;;4992807;28;47003;-77
2023/07/09 03:25:46;;;;;;;;;9.67;9.67;;;;;;;;5011375;28;45874;-75
2023/07/09 03:28:12;;;;;;;;;10.33;10.33;;;;;;;;5012487;28;45703;-77
2023/07/09 03:30:41;;;;;;;;;13.67;13.00;;;;;;;;5017791;28;45517;-83
2023/07/09 03:33:06;;;;;;;;;15.67;13.00;;;;;;;;5011187;28;45457;-77
2023/07/09 03:35:32;;;;;;;;;11.67;11.67;;;;;;;;4993921;28;45839;-77
2023/07/09 03:37:57;;;;;;;;;14.00;11.33;;;;;;;;4995762;28;45635;-77
2023/07/09 03:40:23;;;;;;;;;9.67;9.67;;;;;;;;4999366;28;46281;-77
2023/07/09 03:42:48;;;;;;;;;13.33;11.00;;;;;;;;5018981;28;45680;-82
2023/07/09 03:45:13;;;;;;;;;10.67;10.67;;;;;;;;5016346;28;45955;-75
2023/07/09 03:47:39;;;;;;;;;11.33;10.00;;;;;;;;4981063;28;45690;-77
2023/07/09 03:50:06;;;;;;;;;11.33;10.33;;;;;;;;4992863;28;46929;-75
2023/07/09 03:52:32;;;;;;;;;15.00;14.00;;;;;;;;5002633;28;47518;-77
2023/07/09 03:54:57;;;;;;;;;9.00;8.67;;;;;;;;5005110;28;45702;-75
2023/07/09 03:57:22;;;;;;;;;12.67;12.00;;;;;;;;5014251;28;45415;-83
2023/07/09 03:59:49;;;;;;;;;10.33;9.00;;;;;;;;4998241;28;45706;-83
2023/07/09 04:02:15;;;;;;;;;11.33;11.33;;;;;;;;4986930;28;48517;-76
2023/07/09 04:04:40;;;;;;;;;14.33;11.33;;;;;;;;5013359;28;45691;-77
2023/07/09 04:07:05;;;;;;;;;12.67;10.67;;;;;;;;4993960;28;45368;-77
2023/07/09 04:09:30;;;;;;;;;15.33;9.67;;;;;;;;4988006;28;45914;-78
2023/07/09 04:11:57;;;;;;;;;10.00;10.00;;;;;;;;5016400;28;45488;-76
2023/07/09 04:14:25;;;;;;;;;9.33;9.33;;;;;;;;5007797;28;45495;-76
2023/07/09 04:16:51;;;;;;;;;11.33;9.33;;;;;;;;5010703;28;45650;-83
2023/07/09 04:19:16;;;;;;;;;8.33;8.33;;;;;;;;5019818;28;45698;-77
2023/07/09 04:21:42;;;;;;;;;9.00;9.00;;;;;;;;4994522;28;47168;-76
2023/07/09 04:24:07;;;;;;;;;5.67;4.33;;;;;;;;5002916;28;45784;-77
2023/07/09 04:26:32;;;;;;;;;11.00;9.67;;;;;;;;4993286;28;45862;-77
2023/07/09 04:28:58;;;;;;;;;10.00;10.00;;;;;;;;5013237;28;45765;-79
2023/07/09 04:31:23;;;;;;;;;9.00;8.00;;;;;;;;5012721;28;46191;-77
2023/07/09 04:33:48;;;;;;;;;11.33;8.00;;;;;;;;5027539;28;45391;-75
2023/07/09 04:36:13;;;;;;;;;11.33;9.00;;;;;;;;5019800;28;45415;-75
2023/07/09 04:38:39;;;;;;;;;10.33;9.00;;;;;;;;5017335;28;45419;-77
2023/07/09 04:41:04;;;;;;;;;6.33;6.00;;;;;;;;5014982;28;45801;-77
2023/07/09 04:43:29;;;;;;;;;10.33;8.67;;;;;;;;5004051;28;46007;-77
2023/07/09 04:45:55;;;;;;;;;7.67;7.67;;;;;;;;5017766;28;45821;-76
2023/07/09 04:48:20;;;;;;;;;10.25;9.75;;;;;;;;5032175;28;45336;-76
2023/07/09 04:50:49;;;;;;;;;10.50;9.00;;;;;;;;5022581;28;45329;-76
2023/07/09 04:53:15;;;;;;;;;9.50;8.50;;;;;;;;5005423;28;45412;-73
2023/07/09 04:55:40;;;;;;;;;8.00;7.67;;;;;;;;5014575;28;45962;-77
2023/07/09 04:58:06;;;;;;;;;2.00;0.00;;;;;;;;4999553;28;46538;-77
2023/07/09 05:00:31;;;;;;;;;8.33;8.33;;;;;;;;5019014;28;45859;-77
2023/07/09 05:02:56;;;;;;;;;8.75;8.00;;;;;;;;5021553;28;45495;-77
2023/07/09 05:05:21;;;;;;;;;8.00;8.00;;;;;;;;5016659;28;45840;-76
2023/07/09 05:07:47;;;;;;;;;6.50;6.50;;;;;;;;5019378;28;45461;-75
2023/07/09 05:10:12;;;;;;;;;8.50;7.50;;;;;;;;5008491;28;46216;-75
2023/07/09 05:12:47;;;;;;;;;8.75;8.25;;;;;;;;4997840;28;45787;-76
2023/07/09 05:15:12;;;;;;;;;9.50;8.25;;;;;;;;4996870;28;45806;-74
2023/07/09 05:17:37;;;;;;;;;5.50;5.50;;;;;;;;5013547;28;45443;-75
2023/07/09 05:20:03;;;;;;;;;7.25;7.00;;;;;;;;4999572;28;46522;-75
2023/07/09 05:22:33;;;;;;;;;4.75;4.00;;;;;;;;5023714;28;45438;-78
2023/07/09 05:24:59;;;;;;;;;6.50;6.50;;;;;;;;5025778;28;45391;-77
2023/07/09 05:27:24;;;;;;;;;9.00;6.25;;;;;;;;5026493;28;45973;-79
2023/07/09 05:29:49;;;;;;;;;7.25;6.00;;;;;;;;5034135;28;45580;-79
2023/07/09 05:32:18;;;;;;;;;7.25;7.25;;;;;;;;5026967;28;45186;-83
2023/07/09 05:35:01;;;;;;;;;9.50;8.00;;;;;;;;5027240;28;44892;-81
2023/07/09 05:37:26;;;;;;;;;9.00;7.25;;;;;;;;5024586;28;45369;-75
2023/07/09 05:39:51;;;;;;;;;9.50;7.25;;;;;;;;5011132;28;45698;-75
2023/07/09 05:42:17;;;;;;;;;8.50;6.75;;;;;;;;5011847;28;45777;-75
2023/07/09 05:44:45;;;;;;;;;10.00;8.75;;;;;;;;5010241;28;45526;-76
2023/07/09 05:47:10;;;;;;;;;7.25;5.25;;;;;;;;5016591;28;45387;-73
2023/07/09 05:49:36;;;;;;;;;6.25;5.00;;;;;;;;4996354;28;46923;-74
2023/07/09 05:52:01;;;;;;;;;7.25;6.00;;;;;;;;4993823;28;45835;-73
2023/07/09 05:54:26;;;;;;;;;6.50;6.50;;;;;;;;4999955;28;45872;-73
2023/07/09 05:56:51;;;;;;;;;5.50;5.50;;;;;;;;4992266;28;46197;-73
2023/07/09 05:59:16;;;;;;;;;8.00;8.00;;;;;;;;4990235;28;47384;-73
2023/07/09 06:01:42;;;;;;;;;7.25;7.25;;;;;;;;5006801;28;45836;-74
2023/07/09 06:04:07;;;;;;;;;8.00;7.00;;;;;;;;5010162;28;45812;-75
2023/07/09 06:06:33;;;;;;;;;5.25;5.25;;;;;;;;4991366;28;46096;-74
2023/07/09 06:08:58;;;;;;;;;6.25;5.25;;;;;;;;5009656;28;45557;-74
2023/07/09 06:11:23;;;;;;;;;7.50;7.50;;;;;;;;5009895;28;46571;-75
2023/07/09 06:13:48;;;;;;;;;5.00;5.00;;;;;;;;5009061;28;45507;-73
2023/07/09 06:16:14;;;;;;;;;7.00;6.75;;;;;;;;5009028;28;46471;-73
2023/07/09 06:18:40;;;;;;;;;5.75;5.75;;;;;;;;5013823;28;46278;-76
2023/07/09 06:21:07;;;;;;;;;4.50;4.50;;;;;;;;4995421;28;45420;-73
2023/07/09 06:23:32;;;;;;;;;9.00;7.50;;;;;;;;4990646;28;45894;-73
2023/07/09 06:25:57;;;;;;;;;11.67;10.67;;;;;;;;5004660;28;45551;-75
2023/07/09 06:28:25;;;;;;;;;65.67;51.67;;;;;;;;5006975;28;46061;-73
2023/07/09 06:30:51;;;;;;;;;65.67;47.33;;;;;;;;5009823;28;45384;-73
2023/07/09 06:33:17;;;;;;;;;10.25;9.00;;;;;;;;4987961;28;45498;-74
2023/07/09 06:35:47;;;;;;;;;7.25;7.25;;;;;;;;5007753;28;45772;-75
2023/07/09 06:38:12;;;;;;;;;6.75;6.75;;;;;;;;5013076;28;46924;-75
2023/07/09 06:40:37;;;;;;;;;6.50;6.00;;;;;;;;4988170;28;45636;-75
2023/07/09 06:43:02;;;;;;;;;10.00;8.75;;;;;;;;4994786;28;46693;-75
2023/07/09 06:45:27;;;;;;;;;7.50;7.00;;;;;;;;5018389;28;45684;-74
2023/07/09 06:47:53;;;;;;;;;36.67;31.33;;;;;;;;5015523;28;46475;-73
2023/07/09 06:50:19;;;;;;;;;49.00;42.00;;;;;;;;5016709;28;45819;-73
2023/07/09 06:52:44;;;;;;;;;50.67;42.00;;;;;;;;5017664;28;45721;-75
2023/07/09 06:55:09;;;;;;;;;19.00;17.00;;;;;;;;5013943;28;45711;-72
2023/07/09 06:57:35;;;;;;;;;36.33;31.33;;;;;;;;5015369;28;46492;-77
2023/07/09 07:00:00;;;;;;;;;52.67;41.67;;;;;;;;4997620;28;45406;-74
2023/07/09 07:02:26;;;;;;;;;50.67;40.00;;;;;;;;5009375;28;45392;-72
2023/07/09 07:04:51;;;;;;;;;19.33;15.00;;;;;;;;5013125;28;46149;-71
2023/07/09 07:07:16;;;;;;;;;10.00;8.50;;;;;;;;4999255;28;45812;-72
2023/07/09 07:09:41;;;;;;;;;56.00;46.33;;;;;;;;5006754;28;45672;-74
2023/07/09 07:12:07;;;;;;;;;31.67;26.00;;;;;;;;5002833;28;45501;-73
2023/07/09 07:14:32;;;;;;;;;42.33;34.00;;;;;;;;5015648;28;45757;-74
2023/07/09 07:16:57;;;;;;;;;30.00;27.33;;;;;;;;4995360;28;47294;-73
2023/07/09 07:19:23;;;;;;;;;12.67;12.67;;;;;;;;4999424;28;45743;-73
2023/07/09 07:21:49;;;;;;;;;22.00;18.67;;;;;;;;5014798;28;46011;-75
2023/07/09 07:24:14;;;;;;;;;13.67;13.67;;;;;;;;5010870;28;46953;-75
2023/07/09 07:26:39;;;;;;;;;41.67;34.67;;;;;;;;5010602;28;46263;-75
2023/07/09 07:29:05;;;;;;;;;14.25;10.75;;;;;;;;5014095;28;46073;-73
2023/07/09 07:31:30;;;;;;;;;52.25;42.50;;;;;;;;4992033;28;45838;-74
2023/07/09 07:33:55;;;;;;;;;54.33;42.33;;;;;;;;5000673;28;45872;-75
2023/07/09 07:36:20;;;;;;;;;66.67;53.33;;;;;;;;4987148;28;48601;-73
2023/07/09 07:38:46;;;;;;;;;50.67;40.67;;;;;;;;4990118;28;45644;-73
2023/07/09 07:41:11;;;;;;;;;54.33;45.67;;;;;;;;5006280;28;45864;-72
2023/07/09 07:43:36;;;;;;;;;23.33;20.33;;;;;;;;5010196;28;45683;-75
2023/07/09 07:46:02;;;;;;;;;31.33;25.33;;;;;;;;4988971;28;47775;-73
2023/07/09 07:48:27;;;;;;;;;18.67;16.00;;;;;;;;4994519;28;45467;-73
2023/07/09 07:50:58;;;;;;;;;21.67;19.33;;;;;;;;5008432;28;45931;-73
2023/07/09 07:53:23;;;;;;;;;34.67;32.67;;;;;;;;5006614;28;46014;-73
2023/07/09 07:55:48;;;;;;;;;28.00;25.33;;;;;;;;4988777;28;46304;-74
2023/07/09 07:58:13;;;;;;;;;17.67;12.33;;;;;;;;5010082;28;46065;-74
2023/07/09 08:00:39;;;;;;;;;18.67;17.00;;;;;;;;4980725;28;45720;-74
2023/07/09 08:03:05;;;;;;;;;19.33;19.00;;;;;;;;5022154;28;46879;-75
2023/07/09 08:05:30;;;;;;;;;9.25;9.00;;;;;;;;5009048;28;46206;-74
2023/07/09 08:07:56;;;;;;;;;43.67;35.33;;;;;;;;5011496;28;45518;-72
2023/07/09 08:10:21;;;;;;;;;17.00;14.33;;;;;;;;5002747;28;45508;-74
2023/07/09 08:12:46;;;;;;;;;45.00;35.00;;;;;;;;5023469;28;45620;-79
2023/07/09 08:15:11;;;;;;;;;24.00;22.67;;;;;;;;5023641;28;45507;-78
2023/07/09 08:17:36;;;;;;;;;18.67;17.00;;;;;;;;5016098;28;44817;-81
2023/07/09 08:20:02;;;;;;;;;16.67;16.67;;;;;;;;5022870;28;45803;-79
2023/07/09 08:22:27;;;;;;;;;20.67;19.67;;;;;;;;5012213;28;45677;-80
2023/07/09 08:25:22;;;;;;;;;12.00;11.33;;;;;;;;5022434;28;45377;-82
2023/07/09 08:27:48;;;;;;;;;9.33;9.33;;;;;;;;5012183;28;45738;-80
2023/07/09 08:30:14;;;;;;;;;10.33;10.33;;;;;;;;5000793;28;45925;-79
2023/07/09 08:32:39;;;;;;;;;11.00;11.00;;;;;;;;5016300;28;45854;-80
2023/07/09 08:35:05;;;;;;;;;11.00;9.33;;;;;;;;5014932;28;46263;-77
2023/07/09 08:37:30;;;;;;;;;10.00;10.00;;;;;;;;4997846;28;45841;-80
2023/07/09 08:39:55;;;;;;;;;12.67;12.00;;;;;;;;5017120;28;46018;-81
2023/07/09 08:42:26;;;;;;;;;13.00;11.67;;;;;;;;4987192;28;46214;-83
2023/07/09 08:45:02;;;;;;;;;12.00;10.33;;;;;;;;5004218;28;47369;-80
2023/07/09 08:47:36;;;;;;;;;38.67;34.67;;;;;;;;5012067;28;45596;-80
2023/07/09 08:50:08;;;;;;;;;12.67;11.67;;;;;;;;5006285;28;45850;-74
2023/07/09 08:52:35;;;;;;;;;11.67;9.33;;;;;;;;4995113;28;45694;-77
2023/07/09 08:55:12;;;;;;;;;8.67;7.00;;;;;;;;5013684;28;46345;-82
2023/07/09 08:57:40;;;;;;;;;12.00;12.00;;;;;;;;4993378;28;45546;-77
2023/07/09 09:00:12;;;;;;;;;8.00;7.00;;;;;;;;5015475;28;45393;-77
2023/07/09 09:02:48;;;;;;;;;6.50;6.50;;;;;;;;5017824;28;45542;-76
2023/07/09 09:05:16;;;;;;;;;12.33;9.00;;;;;;;;5012271;28;46257;-78
2023/07/09 09:07:42;;;;;;;;;8.00;8.00;;;;;;;;4993200;28;46304;-78
2023/07/09 09:10:11;;;;;;;;;9.00;7.00;;;;;;;;4994886;28;45772;-77
2023/07/09 09:12:36;;;;;;;;;6.00;6.00;;;;;;;;5014240;28;45720;-77
2023/07/09 09:15:07;;;;;;;;;11.67;10.33;;;;;;;;5009827;28;46770;-75
2023/07/09 09:17:34;;;;;;;;;8.25;7.25;;;;;;;;5001229;28;45842;-76
2023/07/09 09:20:00;;;;;;;;;10.67;10.00;;;;;;;;5001164;28;45937;-77
2023/07/09 09:22:46;;;;;;;;;6.00;6.00;;;;;;;;5001147;28;46205;-77
2023/07/09 09:25:11;;;;;;;;;4.33;4.33;;;;;;;;5015851;28;46647;-77
2023/07/09 09:27:38;;;;;;;;;10.00;9.00;;;;;;;;5013934;28;45835;-77
2023/07/09 09:30:03;;;;;;;;;7.00;7.00;;;;;;;;4992907;28;45800;-77
2023/07/09 09:32:30;;;;;;;;;9.67;7.67;;;;;;;;5014707;28;45502;-76
2023/07/09 09:34:56;;;;;;;;;6.67;6.67;;;;;;;;5010945;28;46100;-77
2023/07/09 09:37:31;;;;;;;;;11.67;11.67;;;;;;;;5011764;28;45499;-77
2023/07/09 09:39:58;;;;;;;;;8.75;8.75;;;;;;;;5015814;28;46046;-77
2023/07/09 09:42:25;;;;;;;;;10.25;8.75;;;;;;;;5015630;28;46186;-77
2023/07/09 09:44:50;;;;;;;;;8.67;7.67;;;;;;;;4994082;28;47814;-77
2023/07/09 09:47:16;;;;;;;;;9.33;9.33;;;;;;;;5013555;28;45942;-83
2023/07/09 09:49:42;;;;;;;;;10.33;9.33;;;;;;;;5014221;28;45889;-84
2023/07/09 09:52:14;;;;;;;;;7.33;7.33;;;;;;;;4993564;28;46219;-83
2023/07/09 09:54:41;;;;;;;;;10.00;10.00;;;;;;;;5000133;28;46111;-83
2023/07/09 09:57:22;;;;;;;;;11.33;10.67;;;;;;;;4996979;28;45478;-84
2023/07/09 09:59:48;;;;;;;;;13.00;11.33;;;;;;;;4994217;28;46389;-84
2023/07/09 10:02:18;;;;;;;;;7.25;7.25;;;;;;;;4996542;28;45498;-78
2023/07/09 10:04:44;;;;;;;;;11.00;7.00;;;;;;;;4998535;28;46930;-77
2023/07/09 10:07:15;;;;;;;;;11.33;11.33;;;;;;;;4998434;28;45826;-78
2023/07/09 10:09:40;;;;;;;;;14.67;12.33;;;;;;;;4993889;28;45761;-79
2023/07/09 10:12:29;;;;;;;;;12.67;11.00;;;;;;;;5001793;28;45996;-79
2023/07/09 10:15:13;;;;;;;;;12.67;12.67;;;;;;;;4988259;28;46118;-78
2023/07/09 10:17:53;;;;;;;;;9.33;9.33;;;;;;;;4987997;28;45955;-79
2023/07/09 10:20:36;;;;;;;;;9.33;8.00;;;;;;;;4981901;28;45891;-80
2023/07/09 10:23:15;;;;;;;;;11.00;8.00;;;;;;;;4993025;28;45947;-80
2023/07/09 10:25:50;;;;;;;;;9.75;9.75;;;;;;;;4999210;28;46423;-82
2023/07/09 10:28:34;;;;;;;;;9.67;9.67;;;;;;;;4992578;28;45792;-84
2023/07/09 10:31:18;;;;;;;;;14.67;12.67;;;;;;;;5004117;28;45509;-78
2023/07/09 10:34:01;;;;;;;;;17.67;13.67;;;;;;;;4994026;28;46934;-83
2023/07/09 10:36:36;;;;;;;;;12.33;11.00;;;;;;;;4994301;28;46489;-82
2023/07/09 10:39:18;;;;;;;;;14.67;13.00;;;;;;;;4996154;28;45625;-82
2023/07/09 10:41:45;;;;;;;;;10.33;10.33;;;;;;;;4992355;28;45756;-82
2023/07/09 10:44:16;;;;;;;;;15.67;13.67;;;;;;;;5011109;28;45957;-85
2023/07/09 10:46:43;;;;;;;;;9.33;9.33;;;;;;;;4994821;28;47098;-86
2023/07/09 10:49:11;;;;;;;;;11.00;10.33;;;;;;;;4992638;28;45506;-90
2023/07/09 10:51:41;;;;;;;;;13.67;13.67;;;;;;;;5008508;28;45541;-89
2023/07/09 10:54:26;;;;;;;;;13.00;11.00;;;;;;;;5014306;28;46842;-88
2023/07/09 10:56:57;;;;;;;;;13.00;11.67;;;;;;;;4997883;28;46158;-86
2023/07/09 10:59:27;;;;;;;;;10.75;8.75;;;;;;;;5008452;28;45123;-87
2023/07/09 11:02:02;;;;;;;;;10.33;8.67;;;;;;;;5004721;28;45832;-83
2023/07/09 11:04:37;;;;;;;;;10.00;8.00;;;;;;;;4993817;28;46209;-82
2023/07/09 11:07:05;;;;;;;;;8.50;6.50;;;;;;;;5002562;28;47762;-83
2023/07/09 11:12:39;;;;;;;;;7.50;7.25;;;;;;;;4990940;28;45556;-81
2023/07/09 11:15:09;;;;;;;;;10.25;10.25;;;;;;;;4996681;28;45999;-82
2023/07/09 11:17:36;;;;;;;;;10.50;8.75;;;;;;;;5018818;28;47032;-82
2023/07/09 11:20:07;;;;;;;;;10.50;10.50;;;;;;;;5004154;28;45893;-87
2023/07/09 11:22:37;;;;;;;;;9.00;8.00;;;;;;;;5023013;28;45897;-82
2023/07/09 11:25:10;;;;;;;;;7.75;7.75;;;;;;;;5001605;28;45831;-81
2023/07/09 11:27:56;;;;;;;;;8.00;6.50;;;;;;;;5010303;28;46688;-87
2023/07/09 11:30:22;;;;;;;;;9.00;7.00;;;;;;;;5009521;28;44820;-82
2023/07/09 11:32:51;;;;;;;;;6.00;6.00;;;;;;;;5003209;28;45343;-82
2023/07/09 11:35:22;;;;;;;;;7.25;7.25;;;;;;;;4996914;28;45757;-82
2023/07/09 11:37:48;;;;;;;;;6.25;6.25;;;;;;;;4988727;28;45633;-82
2023/07/09 11:40:14;;;;;;;;;7.00;5.50;;;;;;;;5005037;28;45466;-79
2023/07/09 11:43:05;;;;;;;;;8.50;7.50;;;;;;;;5004483;28;45979;-84
2023/07/09 11:46:12;;;;;;;;;8.25;8.25;;;;;;;;5012648;28;45368;-86
2023/07/09 11:49:02;;;;;;;;;7.50;6.25;;;;;;;;5016740;28;46839;-86
2023/07/09 11:51:45;;;;;;;;;7.25;6.75;;;;;;;;5012172;28;45759;-85
2023/07/09 11:54:18;;;;;;;;;5.25;3.75;;;;;;;;5015780;28;45685;-84
2023/07/09 11:56:54;;;;;;;;;7.00;7.00;;;;;;;;5008398;28;45355;-83
2023/07/09 11:59:20;;;;;;;;;7.25;6.50;;;;;;;;5004691;28;45778;-86
2023/07/09 12:01:46;;;;;;;;;5.75;5.75;;;;;;;;5021424;28;45393;-85
2023/07/09 12:07:16;;;;;;;;;5.00;5.00;;;;;;;;4997949;28;45474;-83
2023/07/09 12:09:49;;;;;;;;;4.75;4.75;;;;;;;;5002270;28;45836;-85
2023/07/09 12:12:18;;;;;;;;;7.25;7.00;;;;;;;;5022370;28;44876;-89
2023/07/09 12:14:46;;;;;;;;;5.00;5.00;;;;;;;;5006083;28;45576;-89
2023/07/09 12:17:15;;;;;;;;;8.00;7.50;;;;;;;;5014171;28;45653;-90
2023/07/09 12:19:40;;;;;;;;;12.25;11.50;;;;;;;;5009989;28;46076;-79
2023/07/09 12:22:09;;;;;;;;;26.33;20.67;;;;;;;;5000304;28;45715;-76
2023/07/09 12:24:41;;;;;;;;;13.75;11.00;;;;;;;;5010031;28;45742;-78
2023/07/09 12:27:39;;;;;;;;;12.00;9.67;;;;;;;;4996201;28;45929;-78
2023/07/09 12:30:10;;;;;;;;;7.75;6.00;;;;;;;;5003367;28;46024;-77
2023/07/09 12:32:42;;;;;;;;;6.00;6.00;;;;;;;;4995989;28;46151;-80
2023/07/09 12:35:12;;;;;;;;;10.50;9.00;;;;;;;;5019002;28;46353;-80
2023/07/09 12:37:38;;;;;;;;;5.75;5.75;;;;;;;;4991541;28;45618;-79
2023/07/09 12:40:04;;;;;;;;;9.25;7.75;;;;;;;;5001850;28;46281;-79
2023/07/09 12:42:31;;;;;;;;;5.25;5.25;;;;;;;;5023965;28;45553;-80
2023/07/09 12:44:57;;;;;;;;;3.00;3.00;;;;;;;;5000608;28;45537;-80
2023/07/09 12:47:24;;;;;;;;;6.00;5.25;;;;;;;;5001032;28;45458;-80
2023/07/09 12:49:51;;;;;;;;;5.50;4.00;;;;;;;;5005319;28;45748;-80
2023/07/09 12:52:21;;;;;;;;;3.75;3.75;;;;;;;;5009421;28;45528;-82
2023/07/09 12:54:57;;;;;;;;;5.25;4.75;;;;;;;;5017478;28;45751;-81
2023/07/09 12:57:23;;;;;;;;;5.75;4.00;;;;;;;;5007815;28;46060;-83
2023/07/09 12:59:55;;;;;;;;;6.00;6.00;;;;;;;;5036363;28;45982;-82
2023/07/09 13:02:25;;;;;;;;;4.50;4.50;;;;;;;;5019573;28;45374;-82
2023/07/09 13:04:50;;;;;;;;;4.75;3.50;;;;;;;;5010602;28;45393;-82
2023/07/09 13:07:21;;;;;;;;;2.00;2.00;;;;;;;;5022680;28;46204;-81
2023/07/09 13:09:48;;;;;;;;;7.00;4.00;;;;;;;;5000788;28;47218;-80
2023/07/09 13:12:16;;;;;;;;;3.50;3.50;;;;;;;;5003330;28;45453;-82
2023/07/09 13:14:41;;;;;;;;;3.00;3.00;;;;;;;;5001943;28;45871;-81
2023/07/09 13:17:09;;;;;;;;;4.50;4.50;;;;;;;;5020191;28;45577;-81
2023/07/09 13:19:37;;;;;;;;;4.50;4.50;;;;;;;;4997742;28;45850;-81
2023/07/09 13:22:07;;;;;;;;;4.25;2.75;;;;;;;;5035537;28;45470;-81
2023/07/09 13:24:32;;;;;;;;;4.00;3.00;;;;;;;;5021315;28;46059;-82
2023/07/09 13:27:01;;;;;;;;;5.25;5.00;;;;;;;;5000274;28;45664;-79
2023/07/09 13:29:27;;;;;;;;;4.50;4.50;;;;;;;;5003672;28;47011;-82
2023/07/09 13:31:53;;;;;;;;;3.75;3.75;;;;;;;;4998148;28;45401;-82
2023/07/09 13:34:18;;;;;;;;;4.50;4.50;;;;;;;;5003571;28;45474;-83
2023/07/09 13:36:44;;;;;;;;;4.00;4.00;;;;;;;;5007519;28;45688;-83
2023/07/09 13:39:14;;;;;;;;;4.00;4.00;;;;;;;;5010934;28;45410;-82
2023/07/09 13:41:39;;;;;;;;;4.00;4.00;;;;;;;;4996968;28;45764;-81
2023/07/09 13:44:10;;;;;;;;;6.00;2.75;;;;;;;;5018226;28;45688;-84
2023/07/09 13:46:36;;;;;;;;;4.00;4.00;;;;;;;;4996587;28;47424;-82
2023/07/09 13:49:03;;;;;;;;;2.00;2.00;;;;;;;;5017809;28;46096;-82
2023/07/09 13:51:28;;;;;;;;;3.75;3.75;;;;;;;;5010991;28;45569;-83
2023/07/09 13:53:55;;;;;;;;;6.00;4.75;;;;;;;;5005654;28;45821;-82
2023/07/09 13:56:21;;;;;;;;;6.00;3.50;;;;;;;;5011027;28;45952;-81
2023/07/09 13:58:49;;;;;;;;;3.25;3.25;;;;;;;;5016898;28;46100;-83
2023/07/09 14:01:18;;;;;;;;;6.25;4.00;;;;;;;;5020121;28;45944;-81
2023/07/09 14:03:44;;;;;;;;;6.00;4.00;;;;;;;;5010544;28;45742;-80
2023/07/09 14:06:13;;;;;;;;;6.50;4.25;;;;;;;;5017010;28;45660;-83
2023/07/09 14:08:39;;;;;;;;;4.00;4.00;;;;;;;;5001370;28;47927;-82
2023/07/09 14:11:08;;;;;;;;;4.50;4.50;;;;;;;;5019704;28;45631;-84
2023/07/09 14:13:34;;;;;;;;;7.25;4.25;;;;;;;;5013835;28;45589;-84
2023/07/09 14:15:59;;;;;;;;;4.25;4.25;;;;;;;;5000555;28;46169;-82
2023/07/09 14:18:26;;;;;;;;;6.75;5.00;;;;;;;;5017461;28;45948;-84
2023/07/09 14:20:51;;;;;;;;;3.75;3.75;;;;;;;;5002540;28;45811;-86
2023/07/09 14:23:20;;;;;;;;;4.00;4.00;;;;;;;;5015895;28;45792;-84
2023/07/09 14:25:46;;;;;;;;;2.00;2.00;;;;;;;;5022898;28;46580;-83
2023/07/09 14:28:13;;;;;;;;;4.00;4.00;;;;;;;;5011268;28;45547;-80
2023/07/09 14:30:40;;;;;;;;;6.50;5.75;;;;;;;;5011607;28;45826;-82
2023/07/09 14:33:11;;;;;;;;;6.25;5.25;;;;;;;;5018614;28;45542;-81
2023/07/09 14:35:36;;;;;;;;;3.25;3.25;;;;;;;;5012968;28;46778;-80
2023/07/09 14:38:01;;;;;;;;;5.75;4.50;;;;;;;;5003439;28;46991;-82
2023/07/09 14:40:27;;;;;;;;;5.00;5.00;;;;;;;;5009263;28;45877;-87
2023/07/09 14:42:52;;;;;;;;;5.50;4.25;;;;;;;;5002988;28;45521;-85